createdAt,value
2018-08-24T00:01:11.401Z,19.57
2018-08-24T00:03:39.691Z,17.77
2018-08-24T00:06:07.686Z,17.87
2018-08-24T00:08:35.480Z,18.83
2018-08-24T00:11:03.365Z,17.57
2018-08-24T00:13:31.515Z,16.50
2018-08-24T00:15:59.385Z,17.70
2018-08-24T00:18:27.307Z,15.90
2018-08-24T00:20:55.182Z,17.63
2018-08-24T00:23:23.176Z,19.17
2018-08-24T00:25:50.975Z,19.37
2018-08-24T00:28:18.887Z,19.90
2018-08-24T00:30:46.770Z,16.93
2018-08-24T00:33:14.715Z,16.53
2018-08-24T00:35:43.257Z,19.83
2018-08-24T00:38:11.120Z,18.33
2018-08-24T00:40:38.971Z,16.33
2018-08-24T00:43:07.870Z,19.17
2018-08-24T00:45:35.758Z,15.63
2018-08-24T00:48:03.607Z,16.17
2018-08-24T00:50:31.522Z,16.57
2018-08-24T00:52:59.384Z,16.53
2018-08-24T00:55:27.280Z,18.23
2018-08-24T00:57:55.206Z,14.47
2018-08-24T01:00:27.577Z,14.97
2018-08-24T01:02:55.521Z,15.10
2018-08-24T01:05:23.636Z,12.87
2018-08-24T01:07:57.063Z,12.73
2018-08-24T01:10:25.788Z,12.00
2018-08-24T01:12:54.389Z,12.83
2018-08-24T01:15:22.304Z,12.43
2018-08-24T01:17:55.655Z,11.23
2018-08-24T01:20:28.135Z,11.27
2018-08-24T01:22:56.076Z,10.47
2018-08-24T01:25:23.905Z,11.03
2018-08-24T01:27:51.750Z,10.17
2018-08-24T01:30:19.704Z,10.70
2018-08-24T01:32:47.669Z,10.17
2018-08-24T01:35:15.579Z,10.17
2018-08-24T01:37:43.585Z,10.83
2018-08-24T01:40:11.497Z,9.33
2018-08-24T01:42:39.328Z,10.07
2018-08-24T01:45:07.261Z,10.07
2018-08-24T01:47:35.200Z,7.83
2018-08-24T01:50:03.080Z,8.20
2018-08-24T01:52:30.984Z,8.17
2018-08-24T01:54:58.982Z,7.80
2018-08-24T01:57:27.012Z,7.37
2018-08-24T01:59:54.765Z,7.93
2018-08-24T02:02:23.119Z,6.23
2018-08-24T02:04:51.067Z,5.73
2018-08-24T02:07:18.923Z,4.13
2018-08-24T02:09:46.891Z,3.47
2018-08-24T02:12:20.085Z,2.90
2018-08-24T02:14:47.997Z,3.07
2018-08-24T02:17:21.402Z,2.37
2018-08-24T02:19:54.978Z,3.10
2018-08-24T02:22:22.941Z,2.40
2018-08-24T02:24:50.822Z,2.50
2018-08-24T02:27:19.024Z,2.27
2018-08-24T02:29:47.019Z,1.77
2018-08-24T02:32:14.829Z,2.50
2018-08-24T02:34:42.685Z,2.30
2018-08-24T02:37:10.516Z,2.83
2018-08-24T02:39:38.635Z,1.80
2018-08-24T02:42:06.512Z,2.00
2018-08-24T02:44:34.379Z,2.20
2018-08-24T02:47:02.422Z,1.50
2018-08-24T02:49:30.254Z,1.57
2018-08-24T02:51:58.107Z,1.70
2018-08-24T02:54:26.040Z,1.60
2018-08-24T02:56:53.872Z,1.63
2018-08-24T02:59:21.764Z,1.67
2018-08-24T03:01:49.640Z,3.10
2018-08-24T03:04:17.609Z,2.00
2018-08-24T03:06:45.483Z,2.30
2018-08-24T03:09:13.776Z,2.13
2018-08-24T03:11:41.662Z,2.23
2018-08-24T03:14:09.604Z,2.30
2018-08-24T03:16:37.477Z,2.47
2018-08-24T03:19:05.330Z,2.33
2018-08-24T03:21:33.224Z,2.50
2018-08-24T03:24:01.049Z,2.97
2018-08-24T03:26:28.947Z,3.20
2018-08-24T03:28:56.879Z,3.00
2018-08-24T03:31:24.866Z,3.40
2018-08-24T03:33:52.673Z,3.50
2018-08-24T03:36:20.550Z,3.90
2018-08-24T03:38:48.464Z,4.10
2018-08-24T03:41:16.536Z,4.93
2018-08-24T03:43:44.407Z,5.23
2018-08-24T03:46:12.327Z,5.07
2018-08-24T03:48:40.124Z,5.47
2018-08-24T03:51:08.036Z,4.63
2018-08-24T03:53:35.866Z,5.40
2018-08-24T03:56:03.870Z,5.73
2018-08-24T03:58:31.755Z,5.10
2018-08-24T04:00:59.762Z,5.17
2018-08-24T04:03:28.793Z,5.33
2018-08-24T04:05:56.710Z,5.30
2018-08-24T04:08:24.588Z,5.50
2018-08-24T04:10:52.521Z,5.60
2018-08-24T04:13:20.349Z,5.47
2018-08-24T04:15:48.253Z,5.70
2018-08-24T04:18:16.229Z,5.47
2018-08-24T04:20:44.508Z,5.40
2018-08-24T04:23:12.442Z,5.77
2018-08-24T04:25:40.345Z,5.80
2018-08-24T04:28:08.178Z,5.30
2018-08-24T04:30:36.209Z,6.37
2018-08-24T04:33:04.018Z,7.13
2018-08-24T04:35:32.041Z,6.67
2018-08-24T04:37:59.863Z,6.63
2018-08-24T04:40:28.246Z,6.60
2018-08-24T04:42:55.982Z,6.70
2018-08-24T04:45:23.802Z,6.53
2018-08-24T04:47:51.795Z,6.17
2018-08-24T04:50:19.745Z,5.93
2018-08-24T04:52:47.660Z,6.37
2018-08-24T04:55:15.577Z,5.57
2018-08-24T04:57:43.554Z,6.23
2018-08-24T05:00:11.735Z,6.30
2018-08-24T05:02:39.910Z,7.07
2018-08-24T05:05:08.773Z,6.17
2018-08-24T05:07:36.712Z,6.67
2018-08-24T05:10:04.902Z,7.03
2018-08-24T05:12:32.892Z,6.63
2018-08-24T05:15:01.103Z,8.17
2018-08-24T05:17:29.533Z,6.90
2018-08-24T05:19:57.568Z,7.90
2018-08-24T05:22:25.832Z,6.73
2018-08-24T05:24:54.169Z,8.33
2018-08-24T05:27:22.165Z,6.07
2018-08-24T05:29:50.228Z,6.07
2018-08-24T05:32:18.237Z,5.93
2018-08-24T05:34:46.524Z,5.43
2018-08-24T05:37:14.654Z,6.77
2018-08-24T05:39:42.815Z,5.77
2018-08-24T05:42:11.294Z,5.60
2018-08-24T05:44:39.502Z,5.50
2018-08-24T05:47:07.681Z,5.90
2018-08-24T05:49:35.036Z,7.07
2018-08-24T05:52:03.047Z,5.73
2018-08-24T05:54:31.258Z,6.00
2018-08-24T05:56:59.351Z,5.83
2018-08-24T05:59:27.305Z,5.70
2018-08-24T06:01:56.341Z,5.73
2018-08-24T06:04:24.689Z,6.47
2018-08-24T06:06:54.125Z,6.03
2018-08-24T06:09:22.466Z,6.07
2018-08-24T06:11:50.589Z,9.43
2018-08-24T06:14:18.665Z,5.77
2018-08-24T06:16:52.391Z,6.40
2018-08-24T06:19:21.502Z,6.10
2018-08-24T06:21:51.152Z,7.47
2018-08-24T06:24:19.398Z,6.40
2018-08-24T06:26:47.848Z,8.93
2018-08-24T06:29:16.186Z,6.57
2018-08-24T06:31:44.547Z,7.03
2018-08-24T06:34:13.037Z,7.60
2018-08-24T06:36:41.197Z,8.00
2018-08-24T06:39:11.553Z,7.97
2018-08-24T06:41:40.164Z,7.20
2018-08-24T06:44:08.335Z,9.17
2018-08-24T06:46:37.884Z,7.87
2018-08-24T06:49:11.387Z,8.87
2018-08-24T06:51:39.754Z,9.50
2018-08-24T06:54:07.889Z,10.77
2018-08-24T06:56:36.055Z,11.10
2018-08-24T06:59:04.441Z,13.57
2018-08-24T07:01:32.611Z,13.83
2018-08-24T07:04:01.109Z,14.00
2018-08-24T07:06:29.335Z,14.27
2018-08-24T07:08:57.662Z,13.67
2018-08-24T07:11:25.731Z,14.57
2018-08-24T07:13:54.089Z,15.97
2018-08-24T07:16:22.223Z,16.87
2018-08-24T07:18:50.350Z,19.87
2018-08-24T07:21:18.422Z,17.80
2018-08-24T07:23:46.602Z,17.07
2018-08-24T07:26:15.131Z,20.97
2018-08-24T07:28:43.336Z,20.40
2018-08-24T07:31:11.686Z,23.50
2018-08-24T07:33:39.597Z,22.90
2018-08-24T07:36:07.793Z,23.33
2018-08-24T07:38:35.961Z,20.97
2018-08-24T07:41:04.378Z,23.33
2018-08-24T07:43:32.573Z,22.47
2018-08-24T07:46:00.736Z,25.23
2018-08-24T07:48:28.858Z,26.23
2018-08-24T07:50:57.221Z,29.50
2018-08-24T07:53:25.405Z,27.00
2018-08-24T07:55:53.818Z,28.47
2018-08-24T07:58:22.069Z,29.70
2018-08-24T08:00:50.458Z,28.47
2018-08-24T08:03:18.594Z,29.70
2018-08-24T08:05:46.777Z,29.57
2018-08-24T08:08:14.876Z,29.77
2018-08-24T08:10:42.937Z,28.63
2018-08-24T08:13:11.879Z,28.77
2018-08-24T08:15:40.303Z,30.93
2018-08-24T08:18:08.543Z,28.30
2018-08-24T08:20:36.638Z,28.93
2018-08-24T08:23:04.906Z,30.33
2018-08-24T08:25:33.063Z,25.93
2018-08-24T08:28:01.121Z,28.50
2018-08-24T08:30:29.332Z,25.77
2018-08-24T08:32:57.412Z,27.83
2018-08-24T08:35:25.715Z,27.33
2018-08-24T08:37:53.776Z,24.03
2018-08-24T08:40:21.976Z,23.53
2018-08-24T08:42:50.171Z,25.53
2018-08-24T08:45:18.483Z,23.37
2018-08-24T08:47:46.527Z,22.53
2018-08-24T08:50:14.480Z,22.33
2018-08-24T08:52:42.754Z,24.40
2018-08-24T08:55:10.929Z,23.70
2018-08-24T08:57:39.281Z,22.20
2018-08-24T09:00:07.650Z,22.30
2018-08-24T09:02:35.800Z,20.43
2018-08-24T09:05:04.145Z,20.90
2018-08-24T09:07:32.069Z,20.67
2018-08-24T09:10:00.157Z,23.60
2018-08-24T09:12:28.264Z,19.23
2018-08-24T09:14:56.473Z,19.57
2018-08-24T09:17:30.132Z,20.23
2018-08-24T09:20:03.572Z,20.07
2018-08-24T09:22:37.129Z,19.87
2018-08-24T09:25:10.775Z,22.50
2018-08-24T09:28:41.979Z,17.70
2018-08-24T09:31:15.648Z,17.17
2018-08-24T09:33:43.925Z,18.87
2018-08-24T09:36:17.506Z,15.50
2018-08-24T09:38:45.612Z,14.83
2018-08-24T09:41:13.820Z,16.13
2018-08-24T09:43:47.598Z,12.50
2018-08-24T09:46:15.766Z,14.70
2018-08-24T09:48:49.440Z,10.30
2018-08-24T09:51:22.944Z,9.30
2018-08-24T09:53:56.658Z,9.90
2018-08-24T09:56:25.141Z,12.10
2018-08-24T09:58:53.267Z,13.57
2018-08-24T10:01:26.988Z,7.93
2018-08-24T10:05:04.196Z,8.93
2018-08-24T10:07:33.783Z,7.80
2018-08-24T10:10:02.616Z,6.27
2018-08-24T10:12:34.940Z,6.47
2018-08-24T10:15:03.493Z,7.60
2018-08-24T10:17:34.205Z,9.03
2018-08-24T10:20:02.458Z,5.77
2018-08-24T10:22:31.260Z,8.47
2018-08-24T10:24:59.724Z,7.10
2018-08-24T10:27:29.135Z,5.73
2018-08-24T10:29:57.293Z,7.57
2018-08-24T10:32:25.536Z,6.07
2018-08-24T10:34:54.300Z,3.97
2018-08-24T10:37:22.515Z,5.83
2018-08-24T10:39:50.738Z,3.50
2018-08-24T10:42:18.958Z,5.17
2018-08-24T10:44:47.118Z,3.50
2018-08-24T10:47:15.269Z,4.40
2018-08-24T10:49:43.572Z,4.93
2018-08-24T10:52:11.695Z,4.87
2018-08-24T10:54:39.934Z,4.57
2018-08-24T10:57:08.087Z,4.80
2018-08-24T10:59:36.114Z,7.27
2018-08-24T11:02:04.332Z,6.00
2018-08-24T11:04:32.404Z,6.60
2018-08-24T11:07:00.510Z,3.97
2018-08-24T11:09:28.585Z,6.03
2018-08-24T11:11:56.830Z,7.10
2018-08-24T11:14:25.009Z,4.57
2018-08-24T11:16:53.291Z,4.63
2018-08-24T11:19:21.484Z,4.63
2018-08-24T11:21:49.823Z,7.07
2018-08-24T11:24:18.012Z,4.60
2018-08-24T11:26:46.189Z,7.30
2018-08-24T11:29:14.437Z,3.90
2018-08-24T11:31:42.749Z,6.63
2018-08-24T11:34:10.867Z,5.13
2018-08-24T11:36:38.975Z,3.93
2018-08-24T11:39:07.788Z,4.47
2018-08-24T11:41:35.985Z,4.97
2018-08-24T11:44:04.242Z,3.87
2018-08-24T11:46:32.820Z,5.40
2018-08-24T11:49:01.062Z,3.67
2018-08-24T11:51:29.212Z,10.43
2018-08-24T11:53:57.367Z,6.87
2018-08-24T11:56:25.528Z,8.73
2018-08-24T11:58:53.608Z,3.17
2018-08-24T12:01:21.928Z,3.13
2018-08-24T12:03:50.028Z,5.67
2018-08-24T12:06:18.294Z,2.63
2018-08-24T12:08:46.492Z,7.67
2018-08-24T12:11:14.558Z,7.93
2018-08-24T12:13:42.780Z,5.37
2018-08-24T12:16:10.925Z,5.70
2018-08-24T12:18:39.178Z,3.83
2018-08-24T12:21:07.328Z,4.53
2018-08-24T12:23:35.643Z,4.00
2018-08-24T12:26:03.713Z,3.13
2018-08-24T12:28:31.935Z,3.90
2018-08-24T12:31:00.064Z,5.17
2018-08-24T12:33:28.341Z,4.33
2018-08-24T12:35:56.560Z,3.40
2018-08-24T12:38:25.771Z,5.00
2018-08-24T12:40:54.149Z,3.47
2018-08-24T12:43:22.560Z,7.10
2018-08-24T12:45:50.968Z,6.63
2018-08-24T12:48:19.086Z,2.07
2018-08-24T12:50:47.436Z,2.27
2018-08-24T12:53:15.554Z,5.03
2018-08-24T12:56:00.543Z,7.33
2018-08-24T12:58:29.743Z,4.67
2018-08-24T13:00:58.797Z,3.80
2018-08-24T13:03:34.947Z,1.87
2018-08-24T13:06:03.428Z,4.60
2018-08-24T13:08:33.665Z,3.17
2018-08-24T13:11:02.373Z,2.63
2018-08-24T13:13:49.073Z,3.53
2018-08-24T13:16:25.272Z,3.03
2018-08-24T13:18:54.026Z,3.17
2018-08-24T13:21:22.591Z,4.67
2018-08-24T13:23:51.171Z,5.87
2018-08-24T13:26:19.415Z,2.80
2018-08-24T13:31:45.841Z,4.53
2018-08-24T13:34:15.200Z,3.60
2018-08-24T13:36:44.200Z,3.33
2018-08-24T13:39:13.052Z,2.10
2018-08-24T13:44:17.804Z,4.23
2018-08-24T13:47:35.375Z,1.93
2018-08-24T13:50:10.457Z,1.87
2018-08-24T13:52:54.592Z,5.33
2018-08-24T13:55:24.298Z,3.80
2018-08-24T13:57:53.799Z,3.60
2018-08-24T14:01:52.574Z,2.63
2018-08-24T14:04:22.061Z,4.93
2018-08-24T14:06:50.606Z,3.20
2018-08-24T14:09:19.163Z,3.97
2018-08-24T14:14:40.326Z,2.90
2018-08-24T14:17:21.154Z,3.83
2018-08-24T14:19:51.674Z,6.37
2018-08-24T14:22:23.173Z,4.67
2018-08-24T14:25:02.030Z,3.23
2018-08-24T14:27:37.367Z,3.77
2018-08-24T14:30:06.373Z,2.87
2018-08-24T14:32:42.262Z,1.93
2018-08-24T14:35:11.865Z,2.37
2018-08-24T14:37:42.356Z,5.40
2018-08-24T14:40:15.563Z,1.97
2018-08-24T14:42:43.804Z,4.00
2018-08-24T14:45:17.411Z,2.00
2018-08-24T14:48:09.376Z,2.90
2018-08-24T14:53:31.394Z,5.43
2018-08-24T14:56:01.195Z,2.77
2018-08-24T14:58:49.843Z,2.47
2018-08-24T15:01:35.661Z,3.17
2018-08-24T15:04:10.422Z,1.80
2018-08-24T20:06:35.731Z,6.13
2018-08-24T20:09:12.586Z,2.33
2018-08-24T20:11:40.805Z,2.13
2018-08-24T20:14:08.962Z,4.00
2018-08-24T20:16:42.453Z,1.57
2018-08-24T20:19:10.522Z,3.70
2018-08-24T20:21:38.633Z,3.40
2018-08-24T20:24:06.985Z,3.30
2018-08-24T20:26:35.076Z,4.00
2018-08-24T20:29:03.145Z,2.27
2018-08-24T20:31:31.504Z,4.17
2018-08-24T20:33:59.707Z,2.10
2018-08-24T20:36:27.775Z,2.70
2018-08-24T20:38:55.852Z,2.67
2018-08-24T20:41:23.903Z,2.23
2018-08-24T20:43:52.887Z,4.13
2018-08-24T20:46:21.025Z,5.70
2018-08-24T20:48:49.362Z,2.03
2018-08-24T20:51:26.624Z,2.80
2018-08-24T20:53:54.823Z,1.60
2018-08-24T20:56:23.047Z,2.33
2018-08-24T20:58:51.170Z,2.70
2018-08-24T21:01:19.524Z,3.07
2018-08-24T21:03:47.733Z,3.93
2018-08-24T21:06:16.067Z,3.03
2018-08-24T21:08:44.250Z,2.00
2018-08-24T21:11:12.289Z,2.27
2018-08-24T21:13:40.588Z,3.77
2018-08-24T21:16:08.662Z,1.80
2018-08-24T21:18:36.946Z,4.30
2018-08-24T21:21:05.164Z,2.27
2018-08-24T21:23:33.390Z,3.17
2018-08-24T21:26:01.594Z,1.43
2018-08-24T21:28:29.730Z,2.43
2018-08-24T21:30:57.993Z,4.53
2018-08-24T21:33:26.086Z,1.33
2018-08-24T21:35:54.187Z,2.07
2018-08-24T21:38:22.207Z,2.80
2018-08-24T21:40:50.328Z,2.20
2018-08-24T21:43:18.450Z,2.63
2018-08-24T21:45:46.588Z,1.70
2018-08-24T21:48:14.608Z,2.17
2018-08-24T21:50:42.747Z,3.10
2018-08-24T21:53:10.837Z,5.23
2018-08-24T21:55:39.204Z,2.33
2018-08-24T21:58:07.409Z,3.40
2018-08-24T22:00:40.972Z,3.87
2018-08-24T22:03:09.916Z,2.00
2018-08-24T22:05:38.084Z,2.97
2018-08-24T22:08:06.342Z,3.27
2018-08-24T22:10:34.762Z,5.13
2018-08-24T22:13:02.906Z,1.47
2018-08-24T22:15:31.504Z,3.30
2018-08-24T22:17:59.527Z,3.20
2018-08-24T22:20:27.652Z,3.63
2018-08-24T22:22:55.713Z,0.93
2018-08-24T22:25:23.783Z,4.57
2018-08-24T22:27:51.971Z,4.00
2018-08-24T22:30:20.153Z,4.10
2018-08-24T22:32:48.362Z,5.47
2018-08-24T22:35:16.542Z,3.47
2018-08-24T22:37:44.612Z,3.03
2018-08-24T22:40:12.730Z,5.40
2018-08-24T22:42:42.731Z,2.87
2018-08-24T22:45:11.955Z,2.23
2018-08-24T22:47:39.951Z,1.30
2018-08-24T22:50:08.036Z,2.83
2018-08-24T22:52:36.014Z,2.17
2018-08-24T22:55:04.265Z,3.07
2018-08-24T22:57:32.235Z,3.27
2018-08-24T23:00:00.368Z,3.73
2018-08-24T23:02:28.438Z,2.30
2018-08-24T23:04:56.593Z,5.80
2018-08-24T23:07:24.773Z,3.67
2018-08-24T23:09:52.936Z,2.90
2018-08-24T23:12:21.976Z,4.87
2018-08-24T23:14:50.064Z,4.20
2018-08-24T23:17:18.164Z,3.27
2018-08-24T23:19:46.146Z,1.70
2018-08-24T23:22:14.155Z,5.03
2018-08-24T23:24:42.123Z,3.30
2018-08-24T23:27:10.138Z,2.53
2018-08-24T23:29:38.293Z,3.47
2018-08-24T23:32:06.488Z,3.70
2018-08-24T23:34:34.565Z,4.87
2018-08-24T23:37:02.762Z,2.27
2018-08-24T23:39:31.065Z,6.43
2018-08-24T23:41:59.087Z,3.00
2018-08-24T23:44:27.294Z,2.37
2018-08-24T23:46:55.375Z,7.60
2018-08-24T23:49:23.364Z,3.50
2018-08-24T23:51:51.349Z,5.80
2018-08-24T23:54:19.377Z,4.20
2018-08-24T23:56:47.455Z,3.50
2018-08-24T23:59:15.401Z,3.37
